sensor_id;sensor_type;location;lat;lon;timestamp;temperature;humidity
42913;DHT22;50720;54.324;18.558;2022-08-11T00:01:12;13.80;99.90
42913;DHT22;50720;54.324;18.558;2022-08-11T00:03:45;13.80;99.90
42913;DHT22;50720;54.324;18.558;2022-08-11T00:06:21;13.70;99.90
42913;DHT22;50720;54.324;18.558;2022-08-11T00:08:53;13.60;99.90
42913;DHT22;50720;54.324;18.558;2022-08-11T00:11:32;13.60;99.90
42913;DHT22;50720;54.324;18.558;2022-08-11T00:14:10;13.60;99.90
42913;DHT22;50720;54.324;18.558;2022-08-11T00:16:41;13.60;99.90
42913;DHT22;50720;54.324;18.558;2022-08-11T00:19:21;13.50;99.90
42913;DHT22;50720;54.324;18.558;2022-08-11T00:22:11;13.40;99.90
42913;DHT22;50720;54.324;18.558;2022-08-11T00:24:49;13.50;99.90
42913;DHT22;50720;54.324;18.558;2022-08-11T00:27:33;13.40;99.90
42913;DHT22;50720;54.324;18.558;2022-08-11T00:30:06;13.50;99.90
42913;DHT22;50720;54.324;18.558;2022-08-11T00:32:38;13.50;99.90
42913;DHT22;50720;54.324;18.558;2022-08-11T00:35:14;13.60;99.90
42913;DHT22;50720;54.324;18.558;2022-08-11T00:38:05;13.50;99.90
42913;DHT22;50720;54.324;18.558;2022-08-11T00:40:38;13.40;99.90
42913;DHT22;50720;54.324;18.558;2022-08-11T00:43:21;13.30;99.90
42913;DHT22;50720;54.324;18.558;2022-08-11T00:46:10;13.30;99.90
42913;DHT22;50720;54.324;18.558;2022-08-11T00:48:58;13.30;99.90
42913;DHT22;50720;54.324;18.558;2022-08-11T00:51:43;13.30;99.90
42913;DHT22;50720;54.324;18.558;2022-08-11T00:54:57;13.40;99.90
42913;DHT22;50720;54.324;18.558;2022-08-11T01:01:08;13.30;99.90
42913;DHT22;50720;54.324;18.558;2022-08-11T01:04:07;13.30;99.90
42913;DHT22;50720;54.324;18.558;2022-08-11T01:06:51;13.30;99.90
42913;DHT22;50720;54.324;18.558;2022-08-11T01:09:49;13.30;99.90
42913;DHT22;50720;54.324;18.558;2022-08-11T01:12:44;13.40;99.90
42913;DHT22;50720;54.324;18.558;2022-08-11T01:15:48;13.20;99.90
42913;DHT22;50720;54.324;18.558;2022-08-11T01:18:47;13.20;99.90
42913;DHT22;50720;54.324;18.558;2022-08-11T01:25:17;13.20;99.90
42913;DHT22;50720;54.324;18.558;2022-08-11T01:31:46;13.20;99.90
42913;DHT22;50720;54.324;18.558;2022-08-11T01:34:57;13.20;99.90
42913;DHT22;50720;54.324;18.558;2022-08-11T01:40:55;13.10;99.90
42913;DHT22;50720;54.324;18.558;2022-08-11T01:47:09;13.10;99.90
42913;DHT22;50720;54.324;18.558;2022-08-11T01:50:11;13.10;99.90
42913;DHT22;50720;54.324;18.558;2022-08-11T01:52:58;13.10;99.90
42913;DHT22;50720;54.324;18.558;2022-08-11T01:55:36;13.00;99.90
42913;DHT22;50720;54.324;18.558;2022-08-11T01:58:14;13.00;99.90
42913;DHT22;50720;54.324;18.558;2022-08-11T02:00:51;13.00;99.90
42913;DHT22;50720;54.324;18.558;2022-08-11T02:03:28;13.00;99.90
42913;DHT22;50720;54.324;18.558;2022-08-11T02:06:13;12.90;99.90
42913;DHT22;50720;54.324;18.558;2022-08-11T02:09:25;12.80;99.90
42913;DHT22;50720;54.324;18.558;2022-08-11T02:12:09;12.70;99.90
42913;DHT22;50720;54.324;18.558;2022-08-11T02:14:48;12.70;99.90
42913;DHT22;50720;54.324;18.558;2022-08-11T02:17:40;12.70;99.90
42913;DHT22;50720;54.324;18.558;2022-08-11T02:20:23;12.70;99.90
42913;DHT22;50720;54.324;18.558;2022-08-11T02:23:21;12.70;99.90
42913;DHT22;50720;54.324;18.558;2022-08-11T02:26:34;12.70;99.90
42913;DHT22;50720;54.324;18.558;2022-08-11T02:29:15;12.70;99.90
42913;DHT22;50720;54.324;18.558;2022-08-11T02:31:55;12.70;99.90
42913;DHT22;50720;54.324;18.558;2022-08-11T02:35:03;12.70;99.90
42913;DHT22;50720;54.324;18.558;2022-08-11T02:37:41;12.60;99.90
42913;DHT22;50720;54.324;18.558;2022-08-11T02:40:32;12.60;99.90
42913;DHT22;50720;54.324;18.558;2022-08-11T02:43:13;12.60;99.90
42913;DHT22;50720;54.324;18.558;2022-08-11T02:45:54;12.50;99.90
42913;DHT22;50720;54.324;18.558;2022-08-11T02:48:49;12.50;99.90
42913;DHT22;50720;54.324;18.558;2022-08-11T02:51:41;12.40;99.90
42913;DHT22;50720;54.324;18.558;2022-08-11T02:54:22;12.40;99.90
42913;DHT22;50720;54.324;18.558;2022-08-11T02:56:58;12.40;99.90
42913;DHT22;50720;54.324;18.558;2022-08-11T02:59:42;12.40;99.90
42913;DHT22;50720;54.324;18.558;2022-08-11T03:02:41;12.40;99.90
42913;DHT22;50720;54.324;18.558;2022-08-11T03:05:29;12.30;99.90
42913;DHT22;50720;54.324;18.558;2022-08-11T03:08:20;12.30;99.90
42913;DHT22;50720;54.324;18.558;2022-08-11T03:11:00;12.30;99.90
42913;DHT22;50720;54.324;18.558;2022-08-11T03:14:02;12.40;99.90
42913;DHT22;50720;54.324;18.558;2022-08-11T03:16:59;12.40;99.90
42913;DHT22;50720;54.324;18.558;2022-08-11T03:19:40;12.40;99.90
42913;DHT22;50720;54.324;18.558;2022-08-11T03:22:20;12.40;99.90
42913;DHT22;50720;54.324;18.558;2022-08-11T03:24:59;12.50;99.90
42913;DHT22;50720;54.324;18.558;2022-08-11T03:27:43;12.40;99.90
42913;DHT22;50720;54.324;18.558;2022-08-11T03:30:18;12.40;99.90
42913;DHT22;50720;54.324;18.558;2022-08-11T03:33:10;12.40;99.90
42913;DHT22;50720;54.324;18.558;2022-08-11T03:36:09;12.40;99.90
42913;DHT22;50720;54.324;18.558;2022-08-11T03:39:00;12.40;99.90
42913;DHT22;50720;54.324;18.558;2022-08-11T03:41:36;12.30;99.90
42913;DHT22;50720;54.324;18.558;2022-08-11T03:44:54;12.40;99.90
42913;DHT22;50720;54.324;18.558;2022-08-11T03:48:09;12.50;99.90
42913;DHT22;50720;54.324;18.558;2022-08-11T03:51:06;12.60;99.90
42913;DHT22;50720;54.324;18.558;2022-08-11T03:53:56;12.80;99.90
42913;DHT22;50720;54.324;18.558;2022-08-11T04:12:24;13.00;99.90
42913;DHT22;50720;54.324;18.558;2022-08-11T04:18:19;13.20;99.90
42913;DHT22;50720;54.324;18.558;2022-08-11T04:21:09;13.40;99.90
42913;DHT22;50720;54.324;18.558;2022-08-11T04:24:07;13.40;99.90
42913;DHT22;50720;54.324;18.558;2022-08-11T04:30:08;13.60;99.90
42913;DHT22;50720;54.324;18.558;2022-08-11T04:33:02;13.70;99.90
42913;DHT22;50720;54.324;18.558;2022-08-11T04:35:50;14.00;99.90
42913;DHT22;50720;54.324;18.558;2022-08-11T04:38:55;14.10;99.90
42913;DHT22;50720;54.324;18.558;2022-08-11T04:42:05;14.30;99.90
42913;DHT22;50720;54.324;18.558;2022-08-11T04:45:38;14.60;99.90
42913;DHT22;50720;54.324;18.558;2022-08-11T04:48:28;14.70;99.90
42913;DHT22;50720;54.324;18.558;2022-08-11T04:51:35;14.90;99.90
42913;DHT22;50720;54.324;18.558;2022-08-11T04:54:39;15.00;99.90
42913;DHT22;50720;54.324;18.558;2022-08-11T04:57:36;15.10;99.90
42913;DHT22;50720;54.324;18.558;2022-08-11T05:00:30;15.30;99.90
42913;DHT22;50720;54.324;18.558;2022-08-11T05:03:45;15.40;99.90
42913;DHT22;50720;54.324;18.558;2022-08-11T05:09:35;15.70;99.90
42913;DHT22;50720;54.324;18.558;2022-08-11T05:12:24;16.00;99.90
42913;DHT22;50720;54.324;18.558;2022-08-11T05:14:58;16.30;99.90
42913;DHT22;50720;54.324;18.558;2022-08-11T05:17:55;16.50;99.90
42913;DHT22;50720;54.324;18.558;2022-08-11T05:20:50;16.70;99.90
42913;DHT22;50720;54.324;18.558;2022-08-11T05:23:40;16.90;99.90
42913;DHT22;50720;54.324;18.558;2022-08-11T05:26:34;17.00;99.90
42913;DHT22;50720;54.324;18.558;2022-08-11T05:29:27;17.10;99.90
42913;DHT22;50720;54.324;18.558;2022-08-11T05:32:22;17.10;99.90
42913;DHT22;50720;54.324;18.558;2022-08-11T05:35:10;17.20;99.90
42913;DHT22;50720;54.324;18.558;2022-08-11T05:38:02;17.30;99.90
42913;DHT22;50720;54.324;18.558;2022-08-11T05:40:50;17.40;99.90
42913;DHT22;50720;54.324;18.558;2022-08-11T05:43:42;17.50;99.90
42913;DHT22;50720;54.324;18.558;2022-08-11T05:46:48;17.60;99.90
42913;DHT22;50720;54.324;18.558;2022-08-11T05:49:37;17.80;99.90
42913;DHT22;50720;54.324;18.558;2022-08-11T05:52:26;17.80;99.90
42913;DHT22;50720;54.324;18.558;2022-08-11T05:55:24;18.00;99.90
42913;DHT22;50720;54.324;18.558;2022-08-11T05:58:34;18.10;99.90
42913;DHT22;50720;54.324;18.558;2022-08-11T06:01:11;18.30;99.90
42913;DHT22;50720;54.324;18.558;2022-08-11T06:03:44;18.40;99.90
42913;DHT22;50720;54.324;18.558;2022-08-11T06:06:31;18.50;99.90
42913;DHT22;50720;54.324;18.558;2022-08-11T06:09:01;18.70;99.90
42913;DHT22;50720;54.324;18.558;2022-08-11T06:11:37;18.80;99.90
42913;DHT22;50720;54.324;18.558;2022-08-11T06:14:11;18.90;99.90
42913;DHT22;50720;54.324;18.558;2022-08-11T06:16:43;18.90;99.90
42913;DHT22;50720;54.324;18.558;2022-08-11T06:19:16;19.00;99.90
42913;DHT22;50720;54.324;18.558;2022-08-11T06:21:50;19.00;99.90
42913;DHT22;50720;54.324;18.558;2022-08-11T06:24:21;19.10;99.90
42913;DHT22;50720;54.324;18.558;2022-08-11T06:26:53;19.10;99.90
42913;DHT22;50720;54.324;18.558;2022-08-11T06:29:46;19.10;99.90
42913;DHT22;50720;54.324;18.558;2022-08-11T06:32:26;19.20;99.90
42913;DHT22;50720;54.324;18.558;2022-08-11T06:35:09;19.30;99.90
42913;DHT22;50720;54.324;18.558;2022-08-11T06:37:52;19.40;99.90
42913;DHT22;50720;54.324;18.558;2022-08-11T06:40:33;19.50;99.90
42913;DHT22;50720;54.324;18.558;2022-08-11T06:43:14;19.60;99.90
42913;DHT22;50720;54.324;18.558;2022-08-11T06:45:52;19.60;99.90
42913;DHT22;50720;54.324;18.558;2022-08-11T06:48:23;19.70;99.90
42913;DHT22;50720;54.324;18.558;2022-08-11T06:51:03;19.80;99.90
42913;DHT22;50720;54.324;18.558;2022-08-11T06:53:43;19.90;99.90
42913;DHT22;50720;54.324;18.558;2022-08-11T06:56:31;20.10;99.90
42913;DHT22;50720;54.324;18.558;2022-08-11T06:59:42;20.10;99.90
42913;DHT22;50720;54.324;18.558;2022-08-11T07:02:31;20.10;99.90
42913;DHT22;50720;54.324;18.558;2022-08-11T07:05:06;20.20;99.90
42913;DHT22;50720;54.324;18.558;2022-08-11T07:11:19;20.40;99.90
42913;DHT22;50720;54.324;18.558;2022-08-11T07:14:15;20.50;99.90
42913;DHT22;50720;54.324;18.558;2022-08-11T07:17:10;20.50;99.90
42913;DHT22;50720;54.324;18.558;2022-08-11T07:19:45;20.50;99.90
42913;DHT22;50720;54.324;18.558;2022-08-11T07:22:34;20.50;99.90
42913;DHT22;50720;54.324;18.558;2022-08-11T07:25:23;20.60;99.90
42913;DHT22;50720;54.324;18.558;2022-08-11T07:28:24;20.60;99.90
42913;DHT22;50720;54.324;18.558;2022-08-11T07:31:15;20.80;99.90
42913;DHT22;50720;54.324;18.558;2022-08-11T07:33:52;20.80;99.90
42913;DHT22;50720;54.324;18.558;2022-08-11T07:36:39;20.90;99.90
42913;DHT22;50720;54.324;18.558;2022-08-11T07:39:14;21.00;99.90
42913;DHT22;50720;54.324;18.558;2022-08-11T07:41:48;21.10;99.90
42913;DHT22;50720;54.324;18.558;2022-08-11T07:44:19;21.10;99.90
42913;DHT22;50720;54.324;18.558;2022-08-11T07:46:59;21.10;99.90
42913;DHT22;50720;54.324;18.558;2022-08-11T07:49:48;21.20;99.90
42913;DHT22;50720;54.324;18.558;2022-08-11T07:52:37;21.20;99.90
42913;DHT22;50720;54.324;18.558;2022-08-11T07:55:12;21.30;99.90
42913;DHT22;50720;54.324;18.558;2022-08-11T07:57:44;21.50;99.90
42913;DHT22;50720;54.324;18.558;2022-08-11T08:00:48;21.50;99.90
42913;DHT22;50720;54.324;18.558;2022-08-11T08:03:49;21.60;99.90
42913;DHT22;50720;54.324;18.558;2022-08-11T08:06:38;21.60;99.90
42913;DHT22;50720;54.324;18.558;2022-08-11T08:09:26;21.70;99.90
42913;DHT22;50720;54.324;18.558;2022-08-11T08:12:14;21.80;99.90
42913;DHT22;50720;54.324;18.558;2022-08-11T08:15:06;21.90;99.90
42913;DHT22;50720;54.324;18.558;2022-08-11T08:17:54;21.90;99.90
42913;DHT22;50720;54.324;18.558;2022-08-11T08:20:47;21.90;99.90
42913;DHT22;50720;54.324;18.558;2022-08-11T08:23:20;22.10;99.90
42913;DHT22;50720;54.324;18.558;2022-08-11T08:26:03;22.20;99.90
42913;DHT22;50720;54.324;18.558;2022-08-11T08:28:55;22.30;99.90
42913;DHT22;50720;54.324;18.558;2022-08-11T08:31:47;22.30;99.90
42913;DHT22;50720;54.324;18.558;2022-08-11T08:34:16;22.30;99.90
42913;DHT22;50720;54.324;18.558;2022-08-11T08:36:48;22.20;99.90
42913;DHT22;50720;54.324;18.558;2022-08-11T08:39:20;22.10;99.90
42913;DHT22;50720;54.324;18.558;2022-08-11T08:41:54;22.10;99.90
42913;DHT22;50720;54.324;18.558;2022-08-11T08:44:24;22.20;99.90
42913;DHT22;50720;54.324;18.558;2022-08-11T08:47:09;22.40;99.90
42913;DHT22;50720;54.324;18.558;2022-08-11T08:49:47;22.40;99.90
42913;DHT22;50720;54.324;18.558;2022-08-11T08:52:19;22.60;99.90
42913;DHT22;50720;54.324;18.558;2022-08-11T08:55:04;22.60;99.90
42913;DHT22;50720;54.324;18.558;2022-08-11T08:57:35;22.80;99.90
42913;DHT22;50720;54.324;18.558;2022-08-11T09:00:08;23.00;99.90
42913;DHT22;50720;54.324;18.558;2022-08-11T09:02:41;23.10;99.90
42913;DHT22;50720;54.324;18.558;2022-08-11T09:05:12;23.10;99.90
42913;DHT22;50720;54.324;18.558;2022-08-11T09:07:46;23.30;99.90
42913;DHT22;50720;54.324;18.558;2022-08-11T09:10:22;23.20;99.90
42913;DHT22;50720;54.324;18.558;2022-08-11T09:12:53;23.30;99.90
42913;DHT22;50720;54.324;18.558;2022-08-11T09:15:24;23.30;99.90
42913;DHT22;50720;54.324;18.558;2022-08-11T09:17:58;23.30;99.90
42913;DHT22;50720;54.324;18.558;2022-08-11T09:20:35;23.30;99.90
42913;DHT22;50720;54.324;18.558;2022-08-11T09:23:07;23.40;99.90
42913;DHT22;50720;54.324;18.558;2022-08-11T09:26:16;23.40;99.90
42913;DHT22;50720;54.324;18.558;2022-08-11T09:29:03;23.40;99.90
42913;DHT22;50720;54.324;18.558;2022-08-11T09:31:33;23.40;99.90
42913;DHT22;50720;54.324;18.558;2022-08-11T09:34:09;23.40;99.90
42913;DHT22;50720;54.324;18.558;2022-08-11T09:36:42;23.40;99.90
42913;DHT22;50720;54.324;18.558;2022-08-11T09:39:29;23.20;99.90
42913;DHT22;50720;54.324;18.558;2022-08-11T09:42:19;23.20;99.60
42913;DHT22;50720;54.324;18.558;2022-08-11T09:44:51;23.20;96.60
42913;DHT22;50720;54.324;18.558;2022-08-11T09:47:22;23.00;97.60
42913;DHT22;50720;54.324;18.558;2022-08-11T09:49:54;23.10;98.10
42913;DHT22;50720;54.324;18.558;2022-08-11T09:52:29;23.10;98.30
42913;DHT22;50720;54.324;18.558;2022-08-11T09:55:01;23.20;98.00
42913;DHT22;50720;54.324;18.558;2022-08-11T09:57:45;23.30;98.60
42913;DHT22;50720;54.324;18.558;2022-08-11T10:00:34;23.40;97.70
42913;DHT22;50720;54.324;18.558;2022-08-11T10:03:10;23.50;97.10
42913;DHT22;50720;54.324;18.558;2022-08-11T10:05:44;23.50;95.50
42913;DHT22;50720;54.324;18.558;2022-08-11T10:08:38;23.50;95.00
42913;DHT22;50720;54.324;18.558;2022-08-11T10:11:10;23.50;96.20
42913;DHT22;50720;54.324;18.558;2022-08-11T10:13:43;23.50;95.50
42913;DHT22;50720;54.324;18.558;2022-08-11T10:16:51;23.60;92.90
42913;DHT22;50720;54.324;18.558;2022-08-11T10:19:22;23.60;92.20
42913;DHT22;50720;54.324;18.558;2022-08-11T10:21:54;23.70;91.90
42913;DHT22;50720;54.324;18.558;2022-08-11T10:24:42;23.90;91.60
42913;DHT22;50720;54.324;18.558;2022-08-11T10:27:30;23.80;89.20
42913;DHT22;50720;54.324;18.558;2022-08-11T10:30:23;23.90;89.40
42913;DHT22;50720;54.324;18.558;2022-08-11T10:33:12;23.90;85.70
42913;DHT22;50720;54.324;18.558;2022-08-11T10:36:06;23.90;86.00
42913;DHT22;50720;54.324;18.558;2022-08-11T10:38:45;24.10;83.30
42913;DHT22;50720;54.324;18.558;2022-08-11T10:41:18;24.30;79.50
42913;DHT22;50720;54.324;18.558;2022-08-11T10:44:25;24.30;73.20
42913;DHT22;50720;54.324;18.558;2022-08-11T10:46:56;24.30;77.60
42913;DHT22;50720;54.324;18.558;2022-08-11T10:49:43;24.50;74.90
42913;DHT22;50720;54.324;18.558;2022-08-11T10:52:35;24.70;73.80
42913;DHT22;50720;54.324;18.558;2022-08-11T10:55:23;25.00;75.90
42913;DHT22;50720;54.324;18.558;2022-08-11T10:58:10;25.50;76.50
42913;DHT22;50720;54.324;18.558;2022-08-11T11:00:58;26.20;75.20
42913;DHT22;50720;54.324;18.558;2022-08-11T11:03:31;27.60;74.70
42913;DHT22;50720;54.324;18.558;2022-08-11T11:06:08;28.30;72.40
42913;DHT22;50720;54.324;18.558;2022-08-11T11:09:00;28.90;71.00
42913;DHT22;50720;54.324;18.558;2022-08-11T11:11:36;29.80;70.10
42913;DHT22;50720;54.324;18.558;2022-08-11T11:14:31;30.30;67.50
42913;DHT22;50720;54.324;18.558;2022-08-11T11:17:33;30.10;67.30
42913;DHT22;50720;54.324;18.558;2022-08-11T11:20:25;30.20;67.70
42913;DHT22;50720;54.324;18.558;2022-08-11T11:23:12;30.80;64.90
42913;DHT22;50720;54.324;18.558;2022-08-11T11:26:00;30.70;64.70
42913;DHT22;50720;54.324;18.558;2022-08-11T11:29:00;31.00;64.10
42913;DHT22;50720;54.324;18.558;2022-08-11T11:31:41;31.20;64.70
42913;DHT22;50720;54.324;18.558;2022-08-11T11:34:22;31.10;64.80
42913;DHT22;50720;54.324;18.558;2022-08-11T11:36:58;31.50;64.30
42913;DHT22;50720;54.324;18.558;2022-08-11T11:39:30;31.40;63.30
42913;DHT22;50720;54.324;18.558;2022-08-11T11:42:04;31.70;64.40
42913;DHT22;50720;54.324;18.558;2022-08-11T11:44:37;31.60;64.30
42913;DHT22;50720;54.324;18.558;2022-08-11T11:47:07;31.70;64.20
42913;DHT22;50720;54.324;18.558;2022-08-11T11:49:37;31.50;63.80
42913;DHT22;50720;54.324;18.558;2022-08-11T11:52:15;31.10;63.00
42913;DHT22;50720;54.324;18.558;2022-08-11T11:54:49;31.30;63.40
42913;DHT22;50720;54.324;18.558;2022-08-11T11:57:21;31.80;61.50
42913;DHT22;50720;54.324;18.558;2022-08-11T12:00:26;31.50;61.90
42913;DHT22;50720;54.324;18.558;2022-08-11T12:03:15;31.00;61.70
42913;DHT22;50720;54.324;18.558;2022-08-11T12:05:46;31.40;62.20
42913;DHT22;50720;54.324;18.558;2022-08-11T12:08:20;31.40;62.70
42913;DHT22;50720;54.324;18.558;2022-08-11T12:10:57;31.60;61.70
42913;DHT22;50720;54.324;18.558;2022-08-11T12:13:43;31.70;61.20
42913;DHT22;50720;54.324;18.558;2022-08-11T12:16:14;31.80;61.80
42913;DHT22;50720;54.324;18.558;2022-08-11T12:19:05;31.60;61.50
42913;DHT22;50720;54.324;18.558;2022-08-11T12:21:39;31.30;62.10
42913;DHT22;50720;54.324;18.558;2022-08-11T12:24:34;31.20;62.00
42913;DHT22;50720;54.324;18.558;2022-08-11T12:27:24;31.50;62.60
42913;DHT22;50720;54.324;18.558;2022-08-11T12:29:55;31.70;62.10
42913;DHT22;50720;54.324;18.558;2022-08-11T12:32:29;31.90;62.20
42913;DHT22;50720;54.324;18.558;2022-08-11T12:34:59;31.90;62.00
42913;DHT22;50720;54.324;18.558;2022-08-11T12:37:31;31.60;62.80
42913;DHT22;50720;54.324;18.558;2022-08-11T12:40:06;31.40;62.20
42913;DHT22;50720;54.324;18.558;2022-08-11T12:43:16;31.30;62.80
42913;DHT22;50720;54.324;18.558;2022-08-11T12:46:07;31.40;62.10
42913;DHT22;50720;54.324;18.558;2022-08-11T12:48:43;31.30;63.90
42913;DHT22;50720;54.324;18.558;2022-08-11T12:51:34;31.40;64.40
42913;DHT22;50720;54.324;18.558;2022-08-11T12:54:47;31.70;63.90
42913;DHT22;50720;54.324;18.558;2022-08-11T12:57:27;31.30;63.60
42913;DHT22;50720;54.324;18.558;2022-08-11T13:00:16;31.50;63.70
42913;DHT22;50720;54.324;18.558;2022-08-11T13:03:04;31.40;64.10
42913;DHT22;50720;54.324;18.558;2022-08-11T13:05:54;31.40;65.40
42913;DHT22;50720;54.324;18.558;2022-08-11T13:08:25;31.70;62.90
42913;DHT22;50720;54.324;18.558;2022-08-11T13:10:58;31.50;63.30
42913;DHT22;50720;54.324;18.558;2022-08-11T13:13:48;31.10;61.30
42913;DHT22;50720;54.324;18.558;2022-08-11T13:16:27;31.40;62.90
42913;DHT22;50720;54.324;18.558;2022-08-11T13:18:58;31.50;62.90
42913;DHT22;50720;54.324;18.558;2022-08-11T13:21:30;31.50;62.50
42913;DHT22;50720;54.324;18.558;2022-08-11T13:24:00;31.70;62.70
42913;DHT22;50720;54.324;18.558;2022-08-11T13:26:32;32.10;62.20
42913;DHT22;50720;54.324;18.558;2022-08-11T13:29:20;32.20;61.70
42913;DHT22;50720;54.324;18.558;2022-08-11T13:31:52;32.00;62.60
42913;DHT22;50720;54.324;18.558;2022-08-11T13:34:25;31.80;62.80
42913;DHT22;50720;54.324;18.558;2022-08-11T13:36:58;31.50;62.70
42913;DHT22;50720;54.324;18.558;2022-08-11T13:39:29;31.40;63.10
42913;DHT22;50720;54.324;18.558;2022-08-11T13:42:01;31.50;62.70
42913;DHT22;50720;54.324;18.558;2022-08-11T13:44:34;31.10;63.10
42913;DHT22;50720;54.324;18.558;2022-08-11T13:47:07;31.00;63.40
42913;DHT22;50720;54.324;18.558;2022-08-11T13:49:40;31.10;63.10
42913;DHT22;50720;54.324;18.558;2022-08-11T13:52:13;30.90;63.30
42913;DHT22;50720;54.324;18.558;2022-08-11T13:54:45;31.00;64.10
42913;DHT22;50720;54.324;18.558;2022-08-11T13:57:16;30.80;63.90
42913;DHT22;50720;54.324;18.558;2022-08-11T14:00:09;31.00;63.80
42913;DHT22;50720;54.324;18.558;2022-08-11T14:02:56;31.10;64.50
42913;DHT22;50720;54.324;18.558;2022-08-11T14:05:28;31.00;64.50
42913;DHT22;50720;54.324;18.558;2022-08-11T14:08:02;30.40;64.90
42913;DHT22;50720;54.324;18.558;2022-08-11T14:10:33;30.70;65.30
42913;DHT22;50720;54.324;18.558;2022-08-11T14:13:09;30.60;65.10
42913;DHT22;50720;54.324;18.558;2022-08-11T14:16:17;30.90;65.40
42913;DHT22;50720;54.324;18.558;2022-08-11T14:18:53;30.50;65.40
42913;DHT22;50720;54.324;18.558;2022-08-11T14:21:24;30.40;65.80
42913;DHT22;50720;54.324;18.558;2022-08-11T14:24:12;30.20;66.60
42913;DHT22;50720;54.324;18.558;2022-08-11T14:26:43;30.20;66.50
42913;DHT22;50720;54.324;18.558;2022-08-11T14:29:19;30.00;66.50
42913;DHT22;50720;54.324;18.558;2022-08-11T14:31:53;30.00;66.80
42913;DHT22;50720;54.324;18.558;2022-08-11T14:34:25;30.10;67.60
42913;DHT22;50720;54.324;18.558;2022-08-11T14:36:58;30.50;67.00
42913;DHT22;50720;54.324;18.558;2022-08-11T14:39:31;30.40;67.10
42913;DHT22;50720;54.324;18.558;2022-08-11T14:42:05;30.30;66.70
42913;DHT22;50720;54.324;18.558;2022-08-11T14:44:53;30.20;67.40
42913;DHT22;50720;54.324;18.558;2022-08-11T14:47:47;30.10;67.80
42913;DHT22;50720;54.324;18.558;2022-08-11T14:50:22;30.10;68.30
42913;DHT22;50720;54.324;18.558;2022-08-11T14:52:57;29.90;67.40
42913;DHT22;50720;54.324;18.558;2022-08-11T14:55:29;30.00;68.00
42913;DHT22;50720;54.324;18.558;2022-08-11T14:58:18;30.00;68.50
42913;DHT22;50720;54.324;18.558;2022-08-11T15:00:49;30.10;67.90
42913;DHT22;50720;54.324;18.558;2022-08-11T15:03:23;30.30;67.70
42913;DHT22;50720;54.324;18.558;2022-08-11T15:05:56;30.10;68.00
42913;DHT22;50720;54.324;18.558;2022-08-11T15:08:28;29.80;68.30
42913;DHT22;50720;54.324;18.558;2022-08-11T15:11:17;29.70;67.90
42913;DHT22;50720;54.324;18.558;2022-08-11T15:14:06;29.40;69.10
42913;DHT22;50720;54.324;18.558;2022-08-11T15:16:39;29.50;69.20
42913;DHT22;50720;54.324;18.558;2022-08-11T15:19:43;29.40;69.20
42913;DHT22;50720;54.324;18.558;2022-08-11T15:22:34;29.30;70.10
42913;DHT22;50720;54.324;18.558;2022-08-11T15:25:21;29.40;68.60
42913;DHT22;50720;54.324;18.558;2022-08-11T15:27:52;29.50;68.20
42913;DHT22;50720;54.324;18.558;2022-08-11T15:30:40;29.60;69.20
42913;DHT22;50720;54.324;18.558;2022-08-11T15:33:28;29.80;68.90
42913;DHT22;50720;54.324;18.558;2022-08-11T15:36:17;30.00;68.40
42913;DHT22;50720;54.324;18.558;2022-08-11T15:39:07;29.80;69.30
42913;DHT22;50720;54.324;18.558;2022-08-11T15:41:50;29.50;70.50
42913;DHT22;50720;54.324;18.558;2022-08-11T15:44:41;29.70;71.30
42913;DHT22;50720;54.324;18.558;2022-08-11T15:47:36;29.60;71.00
42913;DHT22;50720;54.324;18.558;2022-08-11T15:50:14;29.30;71.90
42913;DHT22;50720;54.324;18.558;2022-08-11T15:52:51;29.40;72.40
42913;DHT22;50720;54.324;18.558;2022-08-11T15:55:23;29.50;72.10
42913;DHT22;50720;54.324;18.558;2022-08-11T15:57:54;29.60;71.90
42913;DHT22;50720;54.324;18.558;2022-08-11T16:00:42;29.70;71.70
42913;DHT22;50720;54.324;18.558;2022-08-11T16:03:43;29.60;71.50
42913;DHT22;50720;54.324;18.558;2022-08-11T16:06:38;29.50;72.20
42913;DHT22;50720;54.324;18.558;2022-08-11T16:09:24;29.30;72.30
42913;DHT22;50720;54.324;18.558;2022-08-11T16:12:02;29.40;72.40
42913;DHT22;50720;54.324;18.558;2022-08-11T16:14:47;29.90;71.10
42913;DHT22;50720;54.324;18.558;2022-08-11T16:17:40;30.00;70.90
42913;DHT22;50720;54.324;18.558;2022-08-11T16:20:14;30.20;69.80
42913;DHT22;50720;54.324;18.558;2022-08-11T16:22:46;29.80;70.30
42913;DHT22;50720;54.324;18.558;2022-08-11T16:25:33;30.10;69.00
42913;DHT22;50720;54.324;18.558;2022-08-11T16:28:24;30.20;69.10
42913;DHT22;50720;54.324;18.558;2022-08-11T16:30:56;30.10;68.60
42913;DHT22;50720;54.324;18.558;2022-08-11T16:33:26;30.10;69.40
42913;DHT22;50720;54.324;18.558;2022-08-11T16:36:18;29.50;69.70
42913;DHT22;50720;54.324;18.558;2022-08-11T16:39:06;29.20;69.50
42913;DHT22;50720;54.324;18.558;2022-08-11T16:41:39;28.60;70.40
42913;DHT22;50720;54.324;18.558;2022-08-11T16:44:28;28.10;71.60
42913;DHT22;50720;54.324;18.558;2022-08-11T16:47:17;28.10;72.10
42913;DHT22;50720;54.324;18.558;2022-08-11T16:50:08;28.40;71.00
42913;DHT22;50720;54.324;18.558;2022-08-11T16:52:38;28.30;72.60
42913;DHT22;50720;54.324;18.558;2022-08-11T16:55:09;28.20;73.30
42913;DHT22;50720;54.324;18.558;2022-08-11T16:58:00;28.30;71.00
42913;DHT22;50720;54.324;18.558;2022-08-11T17:01:03;28.30;72.10
42913;DHT22;50720;54.324;18.558;2022-08-11T17:03:33;27.60;72.00
42913;DHT22;50720;54.324;18.558;2022-08-11T17:06:20;27.40;73.90
42913;DHT22;50720;54.324;18.558;2022-08-11T17:09:09;26.60;76.00
42913;DHT22;50720;54.324;18.558;2022-08-11T17:11:58;26.10;77.40
42913;DHT22;50720;54.324;18.558;2022-08-11T17:14:52;25.60;79.10
42913;DHT22;50720;54.324;18.558;2022-08-11T17:17:28;24.90;79.40
42913;DHT22;50720;54.324;18.558;2022-08-11T17:20:00;24.30;79.60
42913;DHT22;50720;54.324;18.558;2022-08-11T17:22:55;23.80;80.70
42913;DHT22;50720;54.324;18.558;2022-08-11T17:25:43;23.60;83.40
42913;DHT22;50720;54.324;18.558;2022-08-11T17:28:33;23.20;85.90
42913;DHT22;50720;54.324;18.558;2022-08-11T17:31:05;22.80;88.00
42913;DHT22;50720;54.324;18.558;2022-08-11T17:33:54;22.60;88.60
42913;DHT22;50720;54.324;18.558;2022-08-11T17:36:42;22.30;89.90
42913;DHT22;50720;54.324;18.558;2022-08-11T17:39:14;22.30;90.90
42913;DHT22;50720;54.324;18.558;2022-08-11T17:41:44;22.20;91.30
42913;DHT22;50720;54.324;18.558;2022-08-11T17:44:32;22.10;91.80